Anaheim Hills, California
Current Conditions -  °F | °C
As of 12:56 PM on Saturday 22 Nov 2014 (Local Time) from KAJO Reporting Station
Clear Clear  
Wind Chill: 22°   Ceiling: Unl
Heat Index: 22°   Visibility: 10mi
Dew Point:   Wind: 3mph
Humidity: 42%   Direction: 300°WNW
Pressure: 30.04"   Gusts: NA
Location:  33.8431°N, 117.777°W
Report Text: KAJO 222056Z AUTO 30003KT 10SM CLR 22/09 A3004 RMK AO2 58030 60000 T02220088 SLP169 $
Loading
Personal Weather Stations






























Interactive Weather Map New forecast layout! Learn more

10-Day Weather Forecast

Advertisements
Track Severe Weather on mobile